メインページ
METAR-TAF:

METAR-TAF

空港 :

ホセ・ホアキン・デ・オルメード国際空港

グアヤキル, エクアドル

緯度: 02-09S, 経度: 079-53W, 海抜: 4m

現時点の気象観測

当レポートは1時間1分前の02:00(UTC)に作成
南西の風 9kt
気温 26°C
湿度 79%
気圧 1011 hPa
視程10km以上
高度3000ftの雲はほとんどない
高度10000ftの雲は散在している

METAR: SEGU 160200Z 22009KT 9999 FEW030 SCT100 26/22 Q1011 NOSIG RMK A2986

時間: 22:01 (03:01 UTC)

予報

当レポートは4時間46分前の22:15(UTC)に作成
予報は16日の 00時(UTC)から 16日の 24時(UTC)まで有効
南西の風 10kt
視程10km以上
高度2000ftの雲は散在している
高度10000ftの千切れ雲あり
16日の 06時(UTC)から 16日の 08時(UTC)まで徐々に
高度1000ftの雲はほとんどない
高度2600ftの千切れ雲あり
16日の 16時(UTC)から 16日の 18時(UTC)まで徐々に
南/南東の風 10kt
高度1000ftの雲はほとんどない
高度2600ftの雲は散在している
高度10000ftの千切れ雲あり
16日の 21時(UTC)から 16日の 23時(UTC)まで徐々に
南西の風 10kt
高度2600ftの千切れ雲あり
高度10000ftの雲は散在している

TAF: SEGU 152215Z 1600/1624 22010KT 9999 SCT020 BKN100 BECMG 1606/1608 FEW010 BKN026 BECMG 1616/1618 15010KT FEW010 SCT026 BKN100 BECMG 1621/1623 22010KT BKN026 SCT100 TX31/1620Z TN24/1610Z

4,000以上の空港の気象観測と天気予報(METAR報とTAF報)

利用可能な観測所は地図上に黄色い丸と赤い丸で示す。

丸の上にカーソルを重ねると観測所名を参照できる。

次にクリックすると気象観測と天気予報を参照できる。

マップの切り替え:黒色「×」印の緑ボタンをクリックして拡大、「-」印の緑ボタンをクリックして縮小、緑色の三角印をクリックして隣りの地図に切り替え


METAR-TAF: